createdAt,value
2022-09-05T00:00:37.476Z,97.50
2022-09-05T00:03:57.820Z,97.60
2022-09-05T00:07:38.764Z,97.70
2022-09-05T00:11:41.524Z,97.40
2022-09-05T00:15:14.641Z,97.40
2022-09-05T00:22:57.763Z,97.50
2022-09-05T00:24:28.429Z,97.60
2022-09-05T00:25:36.574Z,97.70
2022-09-05T00:29:56.473Z,97.60
2022-09-05T00:33:19.145Z,97.80
2022-09-05T00:36:56.348Z,97.90
2022-09-05T00:40:21.130Z,98.10
2022-09-05T00:43:42.081Z,98.00
2022-09-05T00:47:14.022Z,98.20
2022-09-05T00:50:25.471Z,98.20
2022-09-05T00:53:59.169Z,98.30
2022-09-05T00:57:22.219Z,98.30
2022-09-05T01:00:57.089Z,98.50
2022-09-05T01:04:31.063Z,98.50
2022-09-05T01:07:50.904Z,98.40
2022-09-05T01:11:12.116Z,98.30
2022-09-05T01:18:30.996Z,98.40
2022-09-05T01:21:48.222Z,98.40
2022-09-05T01:25:11.844Z,98.70
2022-09-05T01:29:16.853Z,98.90
2022-09-05T01:32:03.678Z,98.70
2022-09-05T01:35:26.237Z,98.60
2022-09-05T01:40:11.276Z,98.70
2022-09-05T01:42:38.913Z,98.80
2022-09-05T01:46:01.173Z,99.00
2022-09-05T01:49:14.324Z,99.10
2022-09-05T01:52:57.109Z,99.00
2022-09-05T01:56:24.015Z,99.00
2022-09-05T01:59:45.977Z,99.10
2022-09-05T02:03:09.375Z,99.20
2022-09-05T02:06:48.149Z,99.30
2022-09-05T02:10:07.180Z,99.20
2022-09-05T02:13:30.856Z,99.20
2022-09-05T02:16:44.415Z,99.00
2022-09-05T02:20:26.850Z,99.10
2022-09-05T02:23:42.970Z,99.30
2022-09-05T02:27:04.365Z,99.40
2022-09-05T02:30:24.564Z,99.30
2022-09-05T02:33:38.446Z,99.40
2022-09-05T02:37:33.796Z,99.30
2022-09-05T02:45:02.889Z,99.50
2022-09-05T02:45:19.717Z,99.50
2022-09-05T02:48:14.791Z,99.60
2022-09-05T02:57:25.371Z,99.50
2022-09-05T02:57:36.527Z,99.60
2022-09-05T02:59:08.518Z,99.70
2022-09-05T03:02:56.672Z,99.70
2022-09-05T03:06:13.442Z,99.70
2022-09-05T03:09:41.549Z,99.80
2022-09-05T03:13:10.791Z,99.80
2022-09-05T03:16:50.014Z,99.90
2022-09-05T03:20:28.896Z,99.90
2022-09-05T03:23:59.948Z,99.90
2022-09-05T03:27:07.741Z,99.90
2022-09-05T03:30:34.555Z,99.90
2022-09-05T03:33:54.756Z,99.90
2022-09-05T03:37:33.058Z,99.90
2022-09-05T03:41:13.864Z,99.90
2022-09-05T03:44:54.252Z,99.90
2022-09-05T03:48:28.709Z,99.90
2022-09-05T03:57:13.121Z,99.90
2022-09-05T03:57:13.604Z,99.90
2022-09-05T03:59:44.032Z,99.90
2022-09-05T04:08:08.765Z,99.90
2022-09-05T04:09:53.811Z,99.90
2022-09-05T04:13:07.501Z,99.90
2022-09-05T04:16:12.274Z,99.90
2022-09-05T04:19:28.669Z,99.90
2022-09-05T04:23:06.251Z,99.90
2022-09-05T04:26:34.760Z,99.90
2022-09-05T04:29:42.733Z,99.90
2022-09-05T04:33:08.283Z,99.90
2022-09-05T04:36:33.748Z,99.90
2022-09-05T04:39:37.069Z,99.90
2022-09-05T04:42:39.687Z,99.90
2022-09-05T04:45:49.225Z,99.90
2022-09-05T04:49:12.791Z,99.90
2022-09-05T04:52:56.174Z,99.90
2022-09-05T04:55:58.999Z,99.90
2022-09-05T05:01:46.062Z,99.90
2022-09-05T05:06:10.661Z,99.90
2022-09-05T05:09:58.335Z,99.90
2022-09-05T05:18:00.830Z,99.90
2022-09-05T05:18:07.470Z,99.90
2022-09-05T05:20:41.877Z,99.90
2022-09-05T05:24:10.284Z,99.90
2022-09-05T05:27:19.612Z,99.90
2022-09-05T05:33:35.557Z,99.90
2022-09-05T05:40:38.364Z,99.90
2022-09-05T05:43:52.996Z,99.90
2022-09-05T05:47:33.524Z,99.90
2022-09-05T05:51:07.604Z,99.90
2022-09-05T05:54:15.445Z,99.90
2022-09-05T05:57:45.711Z,99.90
2022-09-05T06:01:38.296Z,99.90
2022-09-05T06:05:01.909Z,99.90
2022-09-05T06:12:48.716Z,99.90
2022-09-05T06:15:05.919Z,99.90
2022-09-05T06:15:52.319Z,99.90
2022-09-05T06:19:16.230Z,99.90
2022-09-05T06:22:36.892Z,99.90
2022-09-05T06:26:05.025Z,99.90
2022-09-05T06:29:34.306Z,99.90
2022-09-05T06:33:22.354Z,99.90
2022-09-05T06:36:37.248Z,99.90
2022-09-05T06:40:04.066Z,99.90
2022-09-05T06:43:21.087Z,99.90
2022-09-05T06:47:23.040Z,99.90
2022-09-05T06:50:24.405Z,99.90
2022-09-05T06:54:14.819Z,99.90
2022-09-05T06:57:31.959Z,99.90
2022-09-05T07:05:37.406Z,99.90
2022-09-05T07:08:35.112Z,99.90
2022-09-05T07:12:00.997Z,99.90
2022-09-05T07:15:40.138Z,99.90
2022-09-05T07:19:29.000Z,99.90
2022-09-05T07:23:40.955Z,99.90
2022-09-05T07:26:49.617Z,99.70
2022-09-05T07:30:01.002Z,99.50
2022-09-05T07:33:04.833Z,99.20
2022-09-05T07:36:16.209Z,98.90
2022-09-05T07:39:30.915Z,98.50
2022-09-05T07:42:44.346Z,98.10
2022-09-05T07:46:30.871Z,97.90
2022-09-05T07:50:06.426Z,97.70
2022-09-05T07:56:53.303Z,97.10
2022-09-05T07:57:27.046Z,96.70
2022-09-05T08:01:04.349Z,96.80
2022-09-05T08:04:34.393Z,96.80
2022-09-05T08:07:46.632Z,96.80
2022-09-05T08:11:24.180Z,96.70
2022-09-05T08:14:54.949Z,96.00
2022-09-05T08:18:00.068Z,95.60
2022-09-05T08:21:11.880Z,95.20
2022-09-05T08:24:16.633Z,94.70
2022-09-05T08:27:35.971Z,94.30
2022-09-05T08:30:44.115Z,93.90
2022-09-05T08:33:48.801Z,93.40
2022-09-05T08:36:53.028Z,93.00
2022-09-05T08:40:11.068Z,92.30
2022-09-05T08:46:37.879Z,92.10
2022-09-05T08:46:59.585Z,91.80
2022-09-05T08:50:29.445Z,91.50
2022-09-05T08:53:53.528Z,90.90
2022-09-05T08:57:10.002Z,90.70
2022-09-05T09:00:31.399Z,90.30
2022-09-05T09:04:14.200Z,88.80
2022-09-05T09:07:51.580Z,87.10
2022-09-05T09:11:10.977Z,87.20
2022-09-05T09:14:51.066Z,86.00
2022-09-05T09:17:53.999Z,85.00
2022-09-05T09:21:23.436Z,84.70
2022-09-05T09:24:41.364Z,84.40
2022-09-05T09:28:47.291Z,84.90
2022-09-05T09:31:45.151Z,85.00
2022-09-05T09:35:16.247Z,85.20
2022-09-05T09:38:48.340Z,84.00
2022-09-05T09:42:14.986Z,83.50
2022-09-05T09:45:53.394Z,83.20
2022-09-05T09:49:22.472Z,82.50
2022-09-05T09:52:24.580Z,82.50
2022-09-05T09:56:06.784Z,82.70
2022-09-05T10:07:08.711Z,80.50
2022-09-05T10:10:53.993Z,80.70
2022-09-05T10:11:23.798Z,80.90
2022-09-05T10:14:50.906Z,81.40
2022-09-05T10:18:31.419Z,80.60
2022-09-05T10:26:03.191Z,80.20
2022-09-05T10:29:39.785Z,79.30
2022-09-05T10:35:07.489Z,77.50
2022-09-05T10:36:22.294Z,77.90
2022-09-05T10:39:34.078Z,76.90
2022-09-05T10:43:00.711Z,76.90
2022-09-05T10:46:50.279Z,76.60
2022-09-05T10:50:07.033Z,76.10
2022-09-05T10:53:45.979Z,75.30
2022-09-05T10:57:32.059Z,75.70
2022-09-05T11:02:20.277Z,75.80
2022-09-05T11:04:50.357Z,74.20
2022-09-05T11:07:55.610Z,74.80
2022-09-05T11:11:29.563Z,73.70
2022-09-05T11:15:03.814Z,74.20
2022-09-05T11:18:10.714Z,74.10
2022-09-05T11:21:18.964Z,73.40
2022-09-05T11:24:35.418Z,74.20
2022-09-05T11:27:50.110Z,73.70
2022-09-05T11:30:57.298Z,73.90
2022-09-05T11:39:54.023Z,74.50
2022-09-05T11:40:02.603Z,74.40
2022-09-05T11:41:54.971Z,75.00
2022-09-05T11:45:39.750Z,75.70
2022-09-05T11:49:04.998Z,75.40
2022-09-05T11:52:44.141Z,76.40
2022-09-05T11:56:07.961Z,77.20
2022-09-05T11:59:33.144Z,77.70
2022-09-05T12:02:49.637Z,78.00
2022-09-05T12:06:07.420Z,78.20
2022-09-05T12:09:26.831Z,78.20
2022-09-05T12:12:43.358Z,78.40
2022-09-05T12:16:07.428Z,78.30
2022-09-05T12:19:24.356Z,78.00
2022-09-05T12:22:39.214Z,78.00
2022-09-05T12:27:42.788Z,77.80
2022-09-05T12:29:35.493Z,78.00
2022-09-05T12:36:01.800Z,78.20
2022-09-05T12:39:01.382Z,77.50
2022-09-05T12:44:36.381Z,78.40
2022-09-05T12:47:16.569Z,78.20
2022-09-05T12:50:32.333Z,78.50
2022-09-05T12:53:46.592Z,78.40
2022-09-05T13:02:17.328Z,79.30
2022-09-05T13:03:07.157Z,79.90
2022-09-05T13:04:27.103Z,80.50
2022-09-05T13:07:48.163Z,80.60
2022-09-05T13:14:49.895Z,80.20
2022-09-05T13:15:20.191Z,80.40
2022-09-05T13:18:42.527Z,80.10
2022-09-05T13:25:13.886Z,80.10
2022-09-05T13:28:20.262Z,80.00
2022-09-05T13:38:07.412Z,80.00
2022-09-05T13:38:21.015Z,80.70
2022-09-05T13:39:20.286Z,80.30
2022-09-05T13:42:43.725Z,79.80
2022-09-05T13:46:24.601Z,79.40
2022-09-05T13:49:44.765Z,79.20
2022-09-05T13:52:49.531Z,79.00
2022-09-05T13:56:03.522Z,78.30
2022-09-05T13:59:14.219Z,78.40
2022-09-05T14:06:47.557Z,77.90
2022-09-05T14:10:12.719Z,77.60
2022-09-05T14:13:43.118Z,77.50
2022-09-05T14:16:54.469Z,78.40
2022-09-05T14:20:18.415Z,77.70
2022-09-05T14:23:22.365Z,77.80
2022-09-05T14:26:34.261Z,78.10
2022-09-05T14:29:48.395Z,77.90
2022-09-05T14:37:49.994Z,77.80
2022-09-05T14:37:50.096Z,78.00
2022-09-05T14:40:54.350Z,77.80
2022-09-05T14:44:16.236Z,77.30
2022-09-05T14:47:50.809Z,76.40
2022-09-05T14:51:25.734Z,76.80
2022-09-05T15:02:39.119Z,77.60
2022-09-05T15:02:55.253Z,77.40
2022-09-05T15:05:16.268Z,77.60
2022-09-05T15:11:24.494Z,76.90
2022-09-05T15:12:23.890Z,77.20
2022-09-05T15:15:34.679Z,76.50
2022-09-05T15:18:44.129Z,76.70
2022-09-05T15:21:52.453Z,76.10
2022-09-05T15:25:17.119Z,75.30
2022-09-05T15:28:22.099Z,75.40
2022-09-05T15:31:27.924Z,75.20
2022-09-05T15:34:38.346Z,74.80
2022-09-05T15:37:42.560Z,74.80
2022-09-05T15:40:44.939Z,74.20
2022-09-05T15:44:09.410Z,74.10
2022-09-05T15:47:33.872Z,74.10
2022-09-05T15:50:51.263Z,74.80
2022-09-05T15:53:54.138Z,73.70
2022-09-05T16:00:30.338Z,74.20
2022-09-05T16:07:32.851Z,73.20
2022-09-05T16:10:39.977Z,73.70
2022-09-05T16:11:28.451Z,74.40
2022-09-05T16:14:36.538Z,74.90
2022-09-05T16:23:20.195Z,74.80
2022-09-05T16:23:32.502Z,74.60
2022-09-05T16:25:22.256Z,74.50
2022-09-05T16:28:35.709Z,74.60
2022-09-05T16:31:58.079Z,74.50
2022-09-05T16:35:26.464Z,75.10
2022-09-05T16:39:09.447Z,75.40
2022-09-05T16:42:47.164Z,74.90
2022-09-05T16:46:32.727Z,75.90
2022-09-05T16:49:58.818Z,76.30
2022-09-05T16:53:58.468Z,76.20
2022-09-05T16:57:38.543Z,76.30
2022-09-05T17:01:06.896Z,76.90
2022-09-05T17:04:27.087Z,76.70
2022-09-05T17:07:50.850Z,76.60
2022-09-05T17:11:03.727Z,77.10
2022-09-05T17:14:21.087Z,76.90
2022-09-05T17:18:19.063Z,77.20
2022-09-05T17:21:12.620Z,77.60
2022-09-05T17:29:47.134Z,78.10
2022-09-05T17:34:49.790Z,76.80
2022-09-05T17:38:18.254Z,77.00
2022-09-05T17:42:05.149Z,77.60
2022-09-05T17:45:41.352Z,77.80
2022-09-05T17:48:58.620Z,78.60
2022-09-05T17:52:17.486Z,79.20
2022-09-05T17:55:19.238Z,79.80
2022-09-05T17:59:20.878Z,79.10
2022-09-05T18:02:03.565Z,80.20
2022-09-05T18:08:56.671Z,80.90
2022-09-05T18:13:11.901Z,80.80
2022-09-05T18:15:34.684Z,81.00
2022-09-05T18:19:32.911Z,81.20
2022-09-05T18:22:10.236Z,81.60
2022-09-05T18:25:33.371Z,81.40
2022-09-05T18:28:54.216Z,81.10
2022-09-05T18:31:59.570Z,81.60
2022-09-05T18:35:26.719Z,82.20
2022-09-05T18:38:51.851Z,82.90
2022-09-05T18:42:07.059Z,83.00
2022-09-05T18:50:21.425Z,83.80
2022-09-05T18:52:29.959Z,84.10
2022-09-05T18:56:13.363Z,84.40
2022-09-05T18:59:24.759Z,84.60
2022-09-05T19:02:58.387Z,84.80
2022-09-05T19:06:36.918Z,85.30
2022-09-05T19:09:39.198Z,84.80
2022-09-05T19:12:54.379Z,84.70
2022-09-05T19:16:47.200Z,85.40
2022-09-05T19:20:33.901Z,85.30
2022-09-05T19:23:51.999Z,85.60
2022-09-05T19:27:53.128Z,85.60
2022-09-05T19:36:47.359Z,85.90
2022-09-05T19:37:11.973Z,86.10
2022-09-05T19:37:48.834Z,86.00
2022-09-05T19:47:29.276Z,86.10
2022-09-05T19:47:38.549Z,86.10
2022-09-05T19:48:34.906Z,86.70
2022-09-05T19:51:41.822Z,87.00
2022-09-05T19:55:50.331Z,86.60
2022-09-05T19:58:52.833Z,86.50
2022-09-05T20:01:58.091Z,86.80
2022-09-05T20:05:19.036Z,87.10
2022-09-05T20:08:35.364Z,87.10
2022-09-05T20:11:58.200Z,87.30
2022-09-05T20:19:17.140Z,87.50
2022-09-05T20:22:48.857Z,88.60
2022-09-05T20:26:07.767Z,87.80
2022-09-05T20:30:37.488Z,87.80
2022-09-05T20:33:56.173Z,87.50
2022-09-05T20:43:10.460Z,87.60
2022-09-05T20:43:17.607Z,87.70
2022-09-05T20:44:08.691Z,87.80
2022-09-05T20:54:08.618Z,88.40
2022-09-05T20:54:21.521Z,88.70
2022-09-05T20:54:34.687Z,88.50
2022-09-05T20:57:47.414Z,88.60
2022-09-05T21:01:20.079Z,88.70
2022-09-05T21:04:38.608Z,88.90
2022-09-05T21:07:48.077Z,88.10
2022-09-05T21:11:05.411Z,87.80
2022-09-05T21:14:24.667Z,86.60
2022-09-05T21:17:38.934Z,86.90
2022-09-05T21:20:54.090Z,86.70
2022-09-05T21:24:25.075Z,85.60
2022-09-05T21:30:52.600Z,84.00
2022-09-05T21:34:00.787Z,83.80
2022-09-05T21:37:07.239Z,83.80
2022-09-05T21:40:13.833Z,83.90
2022-09-05T21:47:27.502Z,85.10
2022-09-05T21:47:44.282Z,85.20
2022-09-05T21:49:59.998Z,85.10
2022-09-05T21:59:05.424Z,83.80
2022-09-05T21:59:18.514Z,83.80
2022-09-05T22:00:15.273Z,84.20
2022-09-05T22:03:32.473Z,84.50
2022-09-05T22:06:34.541Z,84.40
2022-09-05T22:09:52.412Z,84.50
2022-09-05T22:12:54.845Z,84.70
2022-09-05T22:16:08.959Z,85.40
2022-09-05T22:19:11.388Z,86.50
2022-09-05T22:22:16.974Z,87.40
2022-09-05T22:25:33.174Z,88.80
2022-09-05T22:28:46.394Z,90.30
2022-09-05T22:31:48.567Z,90.90
2022-09-05T22:34:56.819Z,91.40
2022-09-05T22:38:29.066Z,92.10
2022-09-05T22:44:49.302Z,93.30
2022-09-05T22:47:57.858Z,93.90
2022-09-05T22:50:59.813Z,94.40
2022-09-05T22:54:02.145Z,94.50
2022-09-05T22:57:10.850Z,94.90
2022-09-05T23:00:12.983Z,95.20
2022-09-05T23:03:14.781Z,95.50
2022-09-05T23:06:47.864Z,95.80
2022-09-05T23:09:49.656Z,96.10
2022-09-05T23:16:27.358Z,97.00
2022-09-05T23:19:30.961Z,98.20
2022-09-05T23:22:35.978Z,99.30
2022-09-05T23:25:43.888Z,99.90
2022-09-05T23:28:54.946Z,99.90
2022-09-05T23:31:59.661Z,99.90
2022-09-05T23:35:04.886Z,99.90
2022-09-05T23:38:11.170Z,99.90
2022-09-05T23:41:15.351Z,99.90
2022-09-05T23:44:17.154Z,99.90
2022-09-05T23:47:19.180Z,99.90
2022-09-05T23:50:44.153Z,99.90
2022-09-05T23:54:10.445Z,99.90
2022-09-05T23:57:12.292Z,99.90
